Time;durP1;ratioP1;P1;durP2;ratioP2;P2;SDS_P1;SDS_P2;PMS_P1;PMS_P2;Temp;Humidity;BMP_temperature;BMP_pressure;BME280_temperature;BME280_humidity;BME280_pressure;Samples;Min_cycle;Max_cycle;Signal;HPM_P1;HPM_P2
2021/12/03 00:02:18;;;;;;;5.65;4.07;;;6.50;99.90;;;;;;4949154;28;20500;-82
2021/12/03 00:04:44;;;;;;;5.75;4.45;;;6.60;99.90;;;;;;4964541;28;20033;-74
2021/12/03 00:07:10;;;;;;;6.20;3.83;;;6.70;99.90;;;;;;4957719;28;20064;-74
2021/12/03 00:09:36;;;;;;;6.80;4.32;;;6.70;99.90;;;;;;4956990;28;20042;-81
2021/12/03 00:12:06;;;;;;;6.55;4.45;;;6.60;99.90;;;;;;4956810;28;20050;-79
2021/12/03 00:14:35;;;;;;;5.30;3.30;;;6.60;99.90;;;;;;4947630;28;20019;-81
2021/12/03 00:17:03;;;;;;;4.47;3.63;;;6.60;99.90;;;;;;4957364;28;20055;-74
2021/12/03 00:19:28;;;;;;;7.22;4.20;;;6.60;99.90;;;;;;4949584;28;20034;-79
2021/12/03 00:21:54;;;;;;;5.70;3.28;;;6.60;99.90;;;;;;4966731;28;20027;-73
2021/12/03 00:24:20;;;;;;;5.30;3.42;;;6.60;99.90;;;;;;4956292;28;20022;-75
2021/12/03 00:26:46;;;;;;;4.45;2.88;;;6.60;99.90;;;;;;4965444;28;20033;-75
2021/12/03 00:29:11;;;;;;;5.55;2.42;;;6.60;99.90;;;;;;4963507;28;20094;-75
2021/12/03 00:31:37;;;;;;;5.28;2.85;;;6.60;99.90;;;;;;4947803;28;20027;-72
2021/12/03 00:34:03;;;;;;;8.15;2.75;;;6.60;99.90;;;;;;4961907;28;20019;-74
2021/12/03 00:36:29;;;;;;;4.43;2.30;;;6.60;99.90;;;;;;4964594;28;20031;-82
2021/12/03 00:38:57;;;;;;;5.63;2.10;;;6.60;99.90;;;;;;4964029;28;20030;-74
2021/12/03 00:41:23;;;;;;;4.35;2.30;;;6.60;99.90;;;;;;4957759;28;20044;-74
2021/12/03 00:43:52;;;;;;;2.75;1.73;;;6.60;99.90;;;;;;4955189;28;20438;-81
2021/12/03 00:46:19;;;;;;;4.25;2.22;;;6.70;99.90;;;;;;4964300;28;20027;-77
2021/12/03 00:48:47;;;;;;;4.43;1.80;;;6.70;99.90;;;;;;4967416;28;20042;-73
2021/12/03 00:51:13;;;;;;;4.75;1.60;;;6.70;99.90;;;;;;4965404;28;20061;-76
2021/12/03 00:53:39;;;;;;;4.75;1.67;;;6.60;99.90;;;;;;4963188;28;20027;-81
2021/12/03 00:56:06;;;;;;;5.32;2.20;;;6.60;99.90;;;;;;4955417;28;20055;-73
2021/12/03 00:58:33;;;;;;;3.97;1.95;;;6.50;99.90;;;;;;4965123;28;20043;-77
2021/12/03 01:00:59;;;;;;;4.35;2.25;;;6.40;99.90;;;;;;4965210;28;20023;-82
2021/12/03 01:03:24;;;;;;;3.97;2.05;;;6.30;99.90;;;;;;4971631;28;20019;-79
2021/12/03 01:05:50;;;;;;;3.17;2.28;;;6.30;99.90;;;;;;4969975;28;20337;-73
2021/12/03 01:08:16;;;;;;;5.28;2.88;;;6.30;99.90;;;;;;4970153;28;20336;-74
2021/12/03 01:10:42;;;;;;;6.15;2.22;;;6.30;99.90;;;;;;4951963;28;20035;-74
2021/12/03 01:13:08;;;;;;;4.60;2.33;;;6.30;99.90;;;;;;4967940;28;20029;-80
2021/12/03 01:15:37;;;;;;;9.57;3.13;;;6.30;99.90;;;;;;4971444;28;20023;-81
2021/12/03 01:18:05;;;;;;;5.95;3.10;;;6.20;99.90;;;;;;4957252;28;20035;-73
2021/12/03 01:20:32;;;;;;;7.55;3.15;;;6.20;99.90;;;;;;4970268;28;20169;-78
2021/12/03 01:22:59;;;;;;;6.45;3.10;;;6.20;99.90;;;;;;4949134;28;20039;-80
2021/12/03 01:25:26;;;;;;;4.43;2.53;;;6.20;99.90;;;;;;4961345;28;20031;-74
2021/12/03 01:27:52;;;;;;;8.02;3.45;;;6.20;99.90;;;;;;4948511;28;20305;-74
2021/12/03 01:30:21;;;;;;;5.60;2.83;;;6.10;99.90;;;;;;4969512;28;20019;-81
2021/12/03 01:32:48;;;;;;;8.88;2.70;;;6.10;99.90;;;;;;4966468;28;20038;-76
2021/12/03 01:35:14;;;;;;;7.90;2.78;;;6.10;99.90;;;;;;4969281;28;20126;-75
2021/12/03 01:37:41;;;;;;;6.07;2.50;;;6.00;99.90;;;;;;4964811;28;20030;-72
2021/12/03 01:40:11;;;;;;;7.63;2.90;;;6.00;99.90;;;;;;4961589;28;20035;-72
2021/12/03 01:42:38;;;;;;;5.90;2.80;;;6.00;99.90;;;;;;4949709;28;20062;-69
2021/12/03 01:45:06;;;;;;;6.28;2.67;;;6.00;99.90;;;;;;4982944;28;20046;-69
2021/12/03 01:47:32;;;;;;;8.07;2.80;;;6.00;99.90;;;;;;4982798;28;20070;-70
2021/12/03 01:49:57;;;;;;;6.72;2.88;;;6.10;99.90;;;;;;4982367;28;20337;-70
2021/12/03 01:52:23;;;;;;;4.68;2.53;;;6.10;99.90;;;;;;4983158;28;20298;-71
2021/12/03 01:54:49;;;;;;;7.10;3.05;;;6.00;99.90;;;;;;4982106;28;20218;-71
2021/12/03 01:57:16;;;;;;;5.45;2.90;;;6.10;99.90;;;;;;4982883;28;20030;-71
2021/12/03 01:59:42;;;;;;;6.20;3.38;;;6.10;99.90;;;;;;4965086;28;20094;-70
2021/12/03 02:02:09;;;;;;;6.70;3.03;;;6.00;99.90;;;;;;4982756;28;20030;-70
2021/12/03 02:04:35;;;;;;;7.20;2.65;;;5.90;99.90;;;;;;4965497;28;20022;-70
2021/12/03 02:07:01;;;;;;;5.95;3.17;;;5.90;99.90;;;;;;4965220;28;20098;-70
2021/12/03 02:09:27;;;;;;;5.93;3.15;;;5.90;99.90;;;;;;4982459;28;20018;-69
2021/12/03 02:11:53;;;;;;;5.97;2.65;;;5.80;99.90;;;;;;4982083;28;20077;-68
2021/12/03 02:14:20;;;;;;;6.10;3.33;;;5.80;99.90;;;;;;4964446;28;20045;-69
2021/12/03 02:16:46;;;;;;;6.47;3.08;;;6.00;99.90;;;;;;4964952;28;20147;-68
2021/12/03 02:19:12;;;;;;;8.52;4.05;;;6.00;99.90;;;;;;4982418;28;20026;-68
2021/12/03 02:21:38;;;;;;;9.00;4.03;;;5.90;99.90;;;;;;4981534;28;20117;-70
2021/12/03 02:24:05;;;;;;;6.82;3.55;;;5.90;99.90;;;;;;4982710;28;20022;-68
2021/12/03 02:26:31;;;;;;;6.15;3.38;;;5.90;99.90;;;;;;4965192;28;20050;-70
2021/12/03 02:28:57;;;;;;;8.85;2.90;;;5.90;99.90;;;;;;4964476;28;20219;-70
2021/12/03 02:31:24;;;;;;;6.93;2.70;;;5.80;99.90;;;;;;4982458;28;20026;-70
2021/12/03 02:33:52;;;;;;;6.10;2.70;;;5.80;99.90;;;;;;4964294;28;20019;-70
2021/12/03 02:36:18;;;;;;;6.25;2.75;;;5.80;99.90;;;;;;4982193;28;20026;-70
2021/12/03 02:38:45;;;;;;;6.95;2.90;;;5.80;99.90;;;;;;4981535;28;20023;-70
2021/12/03 02:41:11;;;;;;;6.03;3.13;;;5.80;99.90;;;;;;4981688;28;20289;-70
2021/12/03 02:43:37;;;;;;;5.55;2.70;;;5.90;99.90;;;;;;4981895;28;20049;-71
2021/12/03 02:46:03;;;;;;;6.00;3.03;;;5.80;99.90;;;;;;4964617;28;20023;-71
2021/12/03 02:48:31;;;;;;;5.22;2.65;;;5.80;99.90;;;;;;4981632;28;20050;-70
2021/12/03 02:50:58;;;;;;;6.17;2.50;;;5.80;99.90;;;;;;4960930;29;20046;-71
2021/12/03 02:53:24;;;;;;;5.60;2.63;;;5.80;99.90;;;;;;4962810;28;20281;-71
2021/12/03 02:55:51;;;;;;;4.30;2.05;;;5.80;99.90;;;;;;4960318;29;20019;-70
2021/12/03 02:58:17;;;;;;;3.22;1.73;;;5.90;99.90;;;;;;4962674;28;20042;-70
2021/12/03 03:00:44;;;;;;;6.85;2.08;;;5.90;99.90;;;;;;4961906;28;20047;-71
2021/12/03 03:03:10;;;;;;;8.70;1.98;;;5.90;99.90;;;;;;4961182;29;20023;-70
2021/12/03 03:05:36;;;;;;;7.57;1.75;;;5.90;99.90;;;;;;4960686;29;20396;-70
2021/12/03 03:08:02;;;;;;;4.45;1.65;;;5.90;99.90;;;;;;4960611;29;20027;-69
2021/12/03 03:10:31;;;;;;;6.40;2.30;;;5.80;99.90;;;;;;4961922;28;20261;-70
2021/12/03 03:12:59;;;;;;;3.78;1.70;;;5.80;99.90;;;;;;4961741;28;20098;-70
2021/12/03 03:15:26;;;;;;;6.70;1.67;;;5.80;99.90;;;;;;4961243;29;20019;-70
2021/12/03 03:17:51;;;;;;;3.65;1.75;;;5.80;99.90;;;;;;4961521;28;20038;-70
2021/12/03 03:20:18;;;;;;;5.97;1.80;;;5.70;99.90;;;;;;4962145;28;20353;-69
2021/12/03 03:22:44;;;;;;;5.50;1.75;;;5.70;99.90;;;;;;4961662;28;20030;-69
2021/12/03 03:25:14;;;;;;;6.82;1.98;;;5.70;99.90;;;;;;4959914;28;20055;-69
2021/12/03 03:27:41;;;;;;;5.70;1.90;;;5.80;99.90;;;;;;4961272;28;20030;-70
2021/12/03 03:30:11;;;;;;;3.65;1.63;;;5.90;99.90;;;;;;4961957;28;20318;-70
2021/12/03 03:32:37;;;;;;;5.38;2.08;;;5.90;99.90;;;;;;4961590;28;20023;-70
2021/12/03 03:35:04;;;;;;;3.33;1.58;;;5.90;99.90;;;;;;4961228;28;20023;-70
2021/12/03 03:37:29;;;;;;;4.13;1.77;;;5.90;99.90;;;;;;4961483;28;20042;-70
2021/12/03 03:39:55;;;;;;;2.72;1.48;;;5.80;99.90;;;;;;4961119;28;20034;-70
2021/12/03 03:42:21;;;;;;;4.78;1.60;;;5.70;99.90;;;;;;4961674;29;20023;-71
2021/12/03 03:44:47;;;;;;;2.83;1.23;;;5.70;99.90;;;;;;4960115;29;20357;-70
2021/12/03 03:47:13;;;;;;;4.60;1.42;;;5.70;99.90;;;;;;4960438;29;20028;-70
2021/12/03 03:49:39;;;;;;;3.75;1.58;;;5.70;99.90;;;;;;4959883;29;20218;-70
2021/12/03 03:52:05;;;;;;;3.70;1.33;;;5.70;99.90;;;;;;4960143;29;20078;-69
2021/12/03 03:54:31;;;;;;;2.95;1.33;;;5.80;99.90;;;;;;4961078;28;20023;-70
2021/12/03 03:57:16;;;;;;;2.83;1.27;;;5.70;99.90;;;;;;4961107;28;20027;-69
2021/12/03 03:59:42;;;;;;;4.13;1.42;;;5.70;99.90;;;;;;4960718;29;20027;-70
2021/12/03 04:02:07;;;;;;;3.58;1.50;;;5.60;99.90;;;;;;4960295;29;20046;-70
2021/12/03 04:04:33;;;;;;;4.47;1.70;;;5.50;99.90;;;;;;4959662;29;20051;-69
2021/12/03 04:06:59;;;;;;;3.58;1.42;;;5.50;99.90;;;;;;4960573;29;20182;-69
2021/12/03 04:09:24;;;;;;;4.32;1.40;;;5.50;99.90;;;;;;4961173;29;20031;-67
2021/12/03 04:11:50;;;;;;;3.08;1.40;;;5.50;99.90;;;;;;4960473;28;20062;-69
2021/12/03 04:14:16;;;;;;;2.45;1.17;;;5.60;99.90;;;;;;4960756;28;20027;-68
2021/12/03 04:16:42;;;;;;;3.47;1.30;;;5.50;99.90;;;;;;4960456;29;20027;-67
2021/12/03 04:19:08;;;;;;;2.58;1.17;;;5.40;99.90;;;;;;4959771;29;20113;-68
2021/12/03 04:21:33;;;;;;;3.78;1.10;;;5.40;99.90;;;;;;4961262;29;20243;-67
2021/12/03 04:23:59;;;;;;;4.13;1.20;;;5.50;99.90;;;;;;4960063;28;20223;-67
2021/12/03 04:26:25;;;;;;;4.55;1.48;;;5.50;99.90;;;;;;4961003;28;20030;-67
2021/12/03 04:28:50;;;;;;;4.60;1.60;;;5.50;99.90;;;;;;4958476;29;20037;-66
2021/12/03 04:31:16;;;;;;;2.63;1.50;;;5.60;99.90;;;;;;4960988;29;20094;-66
2021/12/03 04:33:42;;;;;;;4.30;1.17;;;5.40;99.90;;;;;;4960087;29;20019;-68
2021/12/03 04:36:08;;;;;;;2.58;1.10;;;5.40;99.90;;;;;;4960797;29;20309;-68
2021/12/03 04:38:34;;;;;;;4.10;1.10;;;5.30;99.90;;;;;;4960279;29;20031;-67
2021/12/03 04:41:01;;;;;;;4.95;1.33;;;5.30;99.90;;;;;;4960242;28;20034;-67
2021/12/03 04:43:28;;;;;;;6.38;1.52;;;5.30;99.90;;;;;;4960790;28;20027;-67
2021/12/03 04:45:54;;;;;;;4.18;1.58;;;5.10;99.90;;;;;;4960515;28;20137;-68
2021/12/03 04:48:20;;;;;;;5.03;1.40;;;5.20;99.90;;;;;;4960540;29;20247;-67
2021/12/03 04:50:46;;;;;;;2.42;1.00;;;5.20;99.90;;;;;;4967818;28;20050;-69
2021/12/03 04:53:13;;;;;;;5.55;1.77;;;5.10;99.90;;;;;;4979749;28;20057;-67
2021/12/03 04:55:40;;;;;;;4.47;1.20;;;5.00;99.90;;;;;;4962362;28;20030;-68
2021/12/03 04:58:06;;;;;;;2.88;1.50;;;5.00;99.90;;;;;;4979711;28;20031;-68
2021/12/03 05:00:34;;;;;;;6.75;2.22;;;5.00;99.90;;;;;;4980163;28;20033;-67
2021/12/03 05:03:00;;;;;;;2.65;1.45;;;4.90;99.90;;;;;;4962332;28;20078;-68
2021/12/03 05:05:31;;;;;;;3.63;1.05;;;4.90;99.90;;;;;;4979885;28;20051;-66
2021/12/03 05:07:58;;;;;;;5.22;1.77;;;4.80;99.90;;;;;;4962311;28;20022;-67
2021/12/03 05:10:25;;;;;;;5.65;1.35;;;4.80;99.90;;;;;;4962835;28;20034;-69
2021/12/03 05:12:53;;;;;;;3.40;1.63;;;4.80;99.90;;;;;;4979312;28;20064;-69
2021/12/03 05:15:19;;;;;;;3.38;1.10;;;4.80;99.90;;;;;;4962645;28;20053;-68
2021/12/03 05:17:45;;;;;;;6.05;2.22;;;4.80;99.90;;;;;;4979009;28;20030;-68
2021/12/03 05:20:11;;;;;;;2.60;1.38;;;4.90;99.90;;;;;;4979380;28;20261;-68
2021/12/03 05:22:36;;;;;;;4.25;1.52;;;4.90;99.90;;;;;;4962673;28;20034;-68
2021/12/03 05:25:03;;;;;;;3.83;1.58;;;4.70;99.90;;;;;;4962001;28;20019;-68
2021/12/03 05:27:29;;;;;;;4.35;2.60;;;4.70;99.90;;;;;;4979167;28;20332;-69
2021/12/03 05:29:55;;;;;;;2.22;1.35;;;4.60;99.90;;;;;;4961993;28;20019;-69
2021/12/03 05:32:21;;;;;;;3.08;2.00;;;4.60;99.90;;;;;;4962199;28;20046;-69
2021/12/03 05:34:46;;;;;;;5.20;1.50;;;4.60;99.90;;;;;;4962176;28;20073;-70
2021/12/03 05:37:12;;;;;;;5.65;1.60;;;4.60;99.90;;;;;;4962382;28;20290;-69
2021/12/03 05:39:39;;;;;;;6.78;1.55;;;4.50;99.90;;;;;;4961581;28;20254;-70
2021/12/03 05:42:05;;;;;;;5.32;2.40;;;4.50;99.90;;;;;;4979853;28;20027;-68
2021/12/03 05:44:31;;;;;;;4.68;1.70;;;4.60;99.90;;;;;;4961476;28;20045;-69
2021/12/03 05:46:58;;;;;;;8.73;1.75;;;4.50;99.90;;;;;;4962598;28;20117;-70
2021/12/03 05:49:26;;;;;;;4.43;1.67;;;4.60;99.90;;;;;;4982079;28;20038;-70
2021/12/03 05:51:52;;;;;;;2.65;1.73;;;4.60;99.90;;;;;;4961994;29;20230;-68
2021/12/03 05:54:19;;;;;;;4.38;2.15;;;4.70;99.90;;;;;;4963469;28;20031;-68
2021/12/03 05:56:45;;;;;;;9.82;2.25;;;4.70;99.90;;;;;;4961877;29;20298;-68
2021/12/03 05:59:11;;;;;;;3.63;1.92;;;4.70;99.90;;;;;;4962343;29;20029;-68
2021/12/03 06:01:36;;;;;;;3.20;1.88;;;4.70;99.90;;;;;;4962189;29;20183;-69
2021/12/03 06:04:03;;;;;;;7.13;2.08;;;4.60;99.90;;;;;;4963128;28;20035;-67
2021/12/03 06:06:29;;;;;;;9.10;2.17;;;4.60;99.90;;;;;;4963310;28;20083;-71
2021/12/03 06:08:57;;;;;;;4.70;2.35;;;4.60;99.90;;;;;;4963464;28;20027;-71
2021/12/03 06:11:24;;;;;;;;;;;4.60;99.90;;;;;;4963948;28;20076;-70
2021/12/03 06:13:50;;;;;;;10.82;4.65;;;4.70;99.90;;;;;;4962716;28;19902;-67
2021/12/03 06:16:16;;;;;;;14.95;7.40;;;4.70;99.90;;;;;;4962288;29;20031;-67
2021/12/03 06:18:41;;;;;;;4.22;2.20;;;4.70;99.90;;;;;;4962368;28;20042;-69
2021/12/03 06:21:10;;;;;;;4.20;2.45;;;4.70;99.90;;;;;;4962026;29;20031;-70
2021/12/03 06:23:36;;;;;;;;;;;4.70;99.90;;;;;;4961805;29;20019;-69
2021/12/03 06:26:03;;;;;;;8.10;2.63;;;4.60;99.90;;;;;;4961785;29;19903;-68
2021/12/03 06:28:30;;;;;;;9.52;2.72;;;4.70;99.90;;;;;;4961152;29;20031;-69
2021/12/03 06:30:57;;;;;;;6.95;3.05;;;4.60;99.90;;;;;;4963398;28;20045;-69
2021/12/03 06:33:24;;;;;;;3.33;2.33;;;4.60;99.90;;;;;;4961885;29;20062;-70
2021/12/03 06:35:50;;;;;;;6.72;2.42;;;4.60;99.90;;;;;;4962516;29;20011;-69
2021/12/03 06:38:16;;;;;;;4.93;2.50;;;4.60;99.90;;;;;;4962818;28;20037;-73
2021/12/03 06:40:43;;;;;;;5.40;2.28;;;4.60;99.90;;;;;;4962096;28;20027;-69
2021/12/03 06:43:10;;;;;;;5.57;2.72;;;4.60;99.90;;;;;;4961302;29;20058;-69
2021/12/03 06:45:36;;;;;;;4.80;2.25;;;4.60;99.90;;;;;;4961790;28;20051;-70
2021/12/03 06:48:02;;;;;;;5.47;2.58;;;4.60;99.90;;;;;;4960435;29;20027;-69
2021/12/03 06:50:30;;;;;;;4.70;2.80;;;4.60;99.90;;;;;;4967483;28;20050;-70
2021/12/03 06:53:06;;;;;;;6.75;3.10;;;4.60;99.90;;;;;;4981634;28;20061;-69
2021/12/03 06:55:48;;;;;;;7.72;2.80;;;4.60;99.90;;;;;;4981408;28;20046;-69
2021/12/03 06:58:19;;;;;;;4.63;2.15;;;4.60;99.90;;;;;;4981767;28;20090;-68
2021/12/03 07:00:54;;;;;;;5.85;2.40;;;4.60;99.90;;;;;;4981047;28;20023;-69
2021/12/03 07:03:20;;;;;;;5.85;2.65;;;4.60;99.90;;;;;;4981819;28;20018;-68
2021/12/03 07:05:46;;;;;;;5.85;2.20;;;4.50;99.90;;;;;;4964184;28;20373;-69
2021/12/03 07:08:12;;;;;;;3.67;2.20;;;4.50;99.90;;;;;;4982415;28;20046;-69
2021/12/03 07:10:39;;;;;;;7.88;2.60;;;4.40;99.90;;;;;;4981794;28;20327;-69
2021/12/03 07:13:05;;;;;;;10.32;2.38;;;4.40;99.90;;;;;;4982004;28;20364;-69
2021/12/03 07:15:31;;;;;;;7.53;2.67;;;4.40;99.90;;;;;;4981634;28;20069;-69
2021/12/03 07:17:57;;;;;;;3.95;2.53;;;4.40;99.90;;;;;;4982190;28;20030;-68
2021/12/03 07:20:25;;;;;;;12.20;2.95;;;4.40;99.90;;;;;;4982107;28;20191;-68
2021/12/03 07:22:51;;;;;;;6.80;2.95;;;4.40;99.90;;;;;;4964249;28;20086;-70
2021/12/03 07:25:17;;;;;;;3.92;2.78;;;4.40;99.90;;;;;;4981956;28;20022;-70
2021/12/03 07:27:43;;;;;;;5.25;2.63;;;4.50;99.90;;;;;;4981241;28;20053;-70
2021/12/03 07:30:11;;;;;;;4.68;2.10;;;4.50;99.90;;;;;;4981620;28;20023;-70
2021/12/03 07:32:37;;;;;;;8.13;2.38;;;4.50;99.90;;;;;;4964186;28;20424;-69
2021/12/03 07:35:05;;;;;;;7.13;2.35;;;4.50;99.90;;;;;;4964623;28;20042;-70
2021/12/03 07:37:30;;;;;;;11.48;2.72;;;4.70;99.90;;;;;;4980965;28;20206;-69
2021/12/03 07:39:59;;;;;;;5.00;2.50;;;4.70;99.90;;;;;;4964613;28;20031;-69
2021/12/03 07:42:25;;;;;;;6.00;2.30;;;4.60;99.90;;;;;;4981466;28;20019;-69
2021/12/03 07:44:50;;;;;;;6.00;2.53;;;4.70;99.90;;;;;;4981156;28;20030;-69
2021/12/03 07:47:16;;;;;;;6.63;2.33;;;4.70;99.90;;;;;;4981632;28;20023;-68
2021/12/03 07:49:44;;;;;;;6.60;2.65;;;4.80;99.90;;;;;;4963736;28;20023;-69
2021/12/03 07:52:12;;;;;;;5.13;2.60;;;4.80;99.90;;;;;;4981693;28;20093;-68
2021/12/03 07:54:38;;;;;;;4.13;2.42;;;4.80;99.90;;;;;;4963773;28;20262;-69
2021/12/03 07:57:04;;;;;;;5.65;2.60;;;4.80;99.90;;;;;;4964059;28;20034;-69
2021/12/03 07:59:30;;;;;;;4.53;2.58;;;4.80;99.90;;;;;;4980521;28;20085;-69
2021/12/03 08:01:55;;;;;;;8.50;3.25;;;4.80;99.90;;;;;;4964353;28;20033;-69
2021/12/03 08:04:21;;;;;;;5.50;3.20;;;4.90;99.90;;;;;;4981101;28;20023;-69
2021/12/03 08:06:51;;;;;;;7.97;2.75;;;4.80;99.90;;;;;;4947618;28;20195;-69
2021/12/03 08:09:17;;;;;;;9.35;3.40;;;4.80;99.90;;;;;;4963871;28;20205;-68
2021/12/03 08:11:43;;;;;;;8.52;3.60;;;4.80;99.90;;;;;;4980054;28;20030;-70
2021/12/03 08:14:09;;;;;;;3.80;3.30;;;4.90;99.90;;;;;;4963733;28;20093;-70
2021/12/03 08:16:35;;;;;;;5.85;3.83;;;4.90;99.90;;;;;;4963414;28;20026;-69
2021/12/03 08:19:00;;;;;;;7.50;3.45;;;4.90;99.90;;;;;;4963669;28;20205;-70
2021/12/03 08:21:26;;;;;;;6.07;3.78;;;4.90;99.90;;;;;;4981554;28;20206;-69
2021/12/03 08:23:52;;;;;;;6.32;3.80;;;4.80;99.90;;;;;;4980743;28;20022;-69
2021/12/03 08:26:17;;;;;;;11.23;4.40;;;4.80;99.90;;;;;;4980899;28;20082;-69
2021/12/03 08:28:43;;;;;;;7.88;5.22;;;4.70;99.90;;;;;;4980384;28;20029;-69
2021/12/03 08:31:14;;;;;;;8.13;4.50;;;4.70;99.90;;;;;;4963697;28;20023;-69
2021/12/03 08:33:41;;;;;;;9.13;5.15;;;4.70;99.90;;;;;;4980299;28;20033;-69
2021/12/03 08:36:08;;;;;;;6.53;4.93;;;4.60;99.90;;;;;;4981011;28;20023;-69
2021/12/03 08:38:33;;;;;;;6.03;4.28;;;4.60;99.90;;;;;;4963026;28;20030;-69
2021/12/03 08:40:59;;;;;;;5.68;4.45;;;4.60;99.90;;;;;;4980779;28;20264;-70
2021/12/03 08:43:25;;;;;;;9.98;4.35;;;4.60;99.90;;;;;;4980575;28;20261;-70
2021/12/03 08:45:54;;;;;;;7.03;4.68;;;4.50;99.90;;;;;;4979933;28;20186;-70
2021/12/03 08:48:22;;;;;;;8.50;4.45;;;4.50;99.90;;;;;;4980639;28;20046;-69
2021/12/03 08:51:08;;;;;;;6.00;3.95;;;4.50;99.90;;;;;;4979867;28;20395;-69
2021/12/03 08:56:18;;;;;;;23.83;5.40;;;4.60;99.90;;;;;;4980459;28;20022;-69
2021/12/03 08:58:43;;;;;;;6.78;4.07;;;4.50;99.90;;;;;;4980181;28;20031;-70
2021/12/03 09:01:12;;;;;;;8.63;4.32;;;4.50;99.90;;;;;;4980742;28;20026;-68
2021/12/03 09:03:37;;;;;;;8.10;4.53;;;4.50;99.90;;;;;;4980054;28;20179;-69
2021/12/03 09:06:03;;;;;;;8.13;4.78;;;4.50;99.90;;;;;;4980522;28;20187;-68
2021/12/03 09:08:29;;;;;;;8.07;4.63;;;4.50;99.90;;;;;;4962831;28;20027;-70
2021/12/03 09:11:05;;;;;;;5.53;4.05;;;4.50;99.90;;;;;;4980781;28;20266;-70
2021/12/03 09:13:32;;;;;;;6.65;4.57;;;4.60;99.90;;;;;;4962235;28;20022;-69
2021/12/03 09:16:07;;;;;;;4.68;3.80;;;4.50;99.90;;;;;;4963260;28;20173;-69
2021/12/03 09:18:36;;;;;;;6.25;4.03;;;4.50;99.90;;;;;;4962502;28;20027;-70
2021/12/03 09:21:06;;;;;;;6.47;3.15;;;4.50;99.90;;;;;;4980554;28;20019;-69
2021/12/03 09:26:34;;;;;;;7.80;3.53;;;4.60;99.90;;;;;;4984528;28;20019;-69
2021/12/03 09:28:58;;;;;;;7.82;4.50;;;4.60;99.90;;;;;;4980275;28;20073;-69
2021/12/03 09:31:24;;;;;;;5.80;3.65;;;4.60;99.90;;;;;;4984230;28;20022;-69
2021/12/03 09:33:50;;;;;;;10.32;4.10;;;4.60;99.90;;;;;;4966108;28;20041;-69
2021/12/03 09:36:37;;;;;;;8.63;4.05;;;4.60;99.90;;;;;;4984414;28;20131;-69
2021/12/03 09:39:06;;;;;;;5.38;2.85;;;4.60;99.90;;;;;;4966098;28;20343;-69
2021/12/03 09:41:32;;;;;;;6.38;3.40;;;4.70;99.90;;;;;;4966247;28;20077;-69
2021/12/03 09:43:58;;;;;;;6.03;2.85;;;4.80;99.90;;;;;;4983799;28;20026;-68
2021/12/03 09:46:29;;;;;;;6.43;3.55;;;4.80;99.90;;;;;;4966585;28;20030;-69
2021/12/03 09:51:38;;;;;;;10.40;3.05;;;4.90;99.90;;;;;;4983503;28;20058;-69
2021/12/03 09:56:33;;;;;;;6.13;2.72;;;4.90;99.90;;;;;;4983204;28;20403;-69
2021/12/03 10:01:44;;;;;;;3.88;2.63;;;4.90;99.90;;;;;;4983405;28;20208;-69
2021/12/03 10:15:11;;;;;;;5.95;3.08;;;5.00;99.90;;;;;;4966232;28;20038;-69
2021/12/03 10:34:55;;;;;;;6.32;3.80;;;5.10;99.90;;;;;;4981858;28;20196;-69
2021/12/03 10:37:41;;;;;;;5.93;3.72;;;5.10;99.90;;;;;;4982948;28;20202;-69
2021/12/03 10:46:16;;;;;;;8.95;4.70;;;5.20;99.90;;;;;;4982441;28;20029;-70
2021/12/03 10:54:46;;;;;;;6.80;3.92;;;5.40;99.90;;;;;;4967115;28;20038;-69
2021/12/03 11:08:39;;;;;;;5.97;4.15;;;5.50;99.90;;;;;;4982171;28;20021;-71
2021/12/03 11:43:39;;;;;;;10.15;4.13;;;5.60;99.90;;;;;;4962865;28;20085;-70
2021/12/03 13:06:48;;;;;;;18.40;9.40;;;5.50;99.90;;;;;;4983953;28;20269;-67
2021/12/03 14:02:38;;;;;;;18.52;6.13;;;5.20;99.90;;;;;;4983146;28;20038;-77
2021/12/03 14:48:32;;;;;;;50.88;7.40;;;4.90;99.90;;;;;;4981873;28;20097;-72
2021/12/03 14:57:08;;;;;;;9.55;3.67;;;4.90;99.90;;;;;;4981694;28;20050;-72
2021/12/03 14:59:36;;;;;;;52.80;9.65;;;4.80;99.90;;;;;;4982064;28;20089;-70
2021/12/03 15:07:50;;;;;;;70.82;9.07;;;4.90;99.90;;;;;;4951031;28;20161;-71
2021/12/03 15:10:27;;;;;;;89.00;10.90;;;4.90;99.90;;;;;;4964467;28;20018;-71
2021/12/03 15:28:38;;;;;;;4.82;2.85;;;4.80;99.90;;;;;;4981422;28;19902;-72
2021/12/03 15:31:31;;;;;;;31.30;6.00;;;4.70;99.90;;;;;;4980726;28;20027;-71
2021/12/03 15:33:55;;;;;;;38.58;6.57;;;4.70;99.90;;;;;;4978984;28;20027;-80
2021/12/03 15:37:02;;;;;;;7.13;3.22;;;4.70;99.90;;;;;;4963969;28;20042;-71
2021/12/03 15:58:20;;;;;;;14.68;4.50;;;4.50;99.90;;;;;;4943058;28;20031;-71
2021/12/03 16:03:50;;;;;;;63.92;10.07;;;4.50;99.90;;;;;;4980778;28;20137;-71
2021/12/03 16:11:48;;;;;;;;;;;4.30;99.90;;;;;;4980588;28;20246;-70
2021/12/03 16:23:07;;;;;;;58.25;9.10;;;4.20;99.90;;;;;;4979130;28;20057;-71
2021/12/03 16:52:13;;;;;;;5.50;4.50;;;4.00;99.90;;;;;;4980260;28;20078;-71
2021/12/03 16:54:44;;;;;;;7.82;4.25;;;4.00;99.90;;;;;;4979764;28;20077;-70
2021/12/03 16:57:11;;;;;;;5.63;4.40;;;3.90;99.90;;;;;;4980675;28;20019;-70
2021/12/03 16:59:41;;;;;;;8.10;4.47;;;3.90;99.90;;;;;;4980245;28;20023;-70
2021/12/03 17:02:12;;;;;;;7.30;4.32;;;3.90;99.90;;;;;;4963202;28;20283;-69
2021/12/03 17:31:41;;;;;;;8.68;5.00;;;3.80;99.90;;;;;;4980005;28;20094;-69
2021/12/03 17:51:13;;;;;;;8.75;6.18;;;3.70;99.90;;;;;;4886366;29;20067;-68
2021/12/03 17:56:30;;;;;;;6.43;4.97;;;3.70;99.90;;;;;;4983814;28;20039;-70
2021/12/03 17:59:07;;;;;;;7.28;4.82;;;3.70;99.90;;;;;;4983188;28;20039;-70
2021/12/03 18:01:39;;;;;;;5.80;4.53;;;3.70;99.90;;;;;;4983772;28;20021;-70
2021/12/03 18:04:19;;;;;;;10.70;5.40;;;3.70;99.90;;;;;;4966138;28;20231;-70
2021/12/03 18:06:56;;;;;;;7.45;5.30;;;3.60;99.90;;;;;;4983246;28;20082;-68
2021/12/03 18:56:56;;;;;;;7.38;5.25;;;3.50;99.90;;;;;;4981868;28;20022;-70
2021/12/03 18:59:25;;;;;;;8.88;6.13;;;3.40;99.90;;;;;;4965099;28;20053;-70
2021/12/03 19:01:52;;;;;;;6.80;4.68;;;3.40;99.90;;;;;;4964928;28;20033;-70
2021/12/03 19:06:52;;;;;;;9.85;5.13;;;3.40;99.90;;;;;;4982128;28;20023;-70
2021/12/03 19:09:27;;;;;;;7.13;4.63;;;3.40;99.90;;;;;;4982550;28;20322;-70
2021/12/03 19:12:07;;;;;;;8.10;5.38;;;3.40;99.90;;;;;;4981687;28;20332;-70
2021/12/03 19:14:36;;;;;;;7.95;5.50;;;3.40;99.90;;;;;;4981940;28;20306;-71
2021/12/03 19:17:02;;;;;;;7.72;4.90;;;3.30;99.90;;;;;;4981696;28;20090;-71
2021/12/03 19:19:30;;;;;;;6.57;4.68;;;3.40;99.90;;;;;;4981963;28;20438;-71
2021/12/03 19:21:58;;;;;;;7.22;5.07;;;3.30;99.90;;;;;;4981747;28;20022;-70
2021/12/03 19:24:26;;;;;;;8.38;5.63;;;3.30;99.90;;;;;;4982012;28;20030;-70
2021/12/03 19:26:52;;;;;;;20.85;10.70;;;3.30;99.90;;;;;;4981393;28;20074;-72
2021/12/03 19:29:20;;;;;;;10.77;7.38;;;3.30;99.90;;;;;;4964655;28;20027;-69
2021/12/03 19:31:48;;;;;;;7.50;5.30;;;3.30;99.90;;;;;;4981644;28;20015;-71
2021/12/03 19:34:14;;;;;;;8.98;5.90;;;3.30;99.90;;;;;;4981669;28;20297;-69
2021/12/03 19:36:44;;;;;;;10.13;5.70;;;3.30;99.90;;;;;;4981303;28;20023;-70
2021/12/03 19:39:13;;;;;;;8.27;5.45;;;3.30;99.90;;;;;;4964260;28;20057;-70
2021/12/03 19:41:46;;;;;;;8.60;4.45;;;3.30;99.90;;;;;;4964394;28;20049;-70
2021/12/03 19:44:18;;;;;;;6.43;4.53;;;3.30;99.90;;;;;;4981668;28;20029;-70
2021/12/03 19:46:47;;;;;;;6.63;4.72;;;3.30;99.90;;;;;;4981389;28;20038;-70
2021/12/03 19:49:33;;;;;;;6.75;4.15;;;3.30;99.90;;;;;;4981742;28;20069;-70
2021/12/03 19:52:10;;;;;;;6.53;4.50;;;3.30;99.90;;;;;;4981212;28;20218;-69
2021/12/03 19:54:35;;;;;;;7.43;4.57;;;3.30;99.90;;;;;;4981717;28;20034;-69
2021/12/03 19:57:01;;;;;;;9.18;5.05;;;3.30;99.90;;;;;;4963732;28;20023;-69
2021/12/03 19:59:27;;;;;;;6.95;4.70;;;3.30;99.90;;;;;;4981232;28;20077;-69
2021/12/03 20:01:53;;;;;;;8.32;5.13;;;3.30;99.90;;;;;;4963664;28;20360;-70
2021/12/03 20:04:19;;;;;;;6.85;5.15;;;3.30;99.90;;;;;;4981120;28;20023;-70
2021/12/03 20:06:46;;;;;;;6.32;4.13;;;3.30;99.90;;;;;;4980072;28;20025;-69
2021/12/03 20:09:20;;;;;;;9.02;6.70;;;3.30;99.90;;;;;;4981157;28;20069;-69
2021/12/03 20:11:50;;;;;;;6.35;4.32;;;3.30;99.90;;;;;;4980866;28;20018;-69
2021/12/03 20:14:17;;;;;;;8.13;5.18;;;3.30;99.90;;;;;;4963879;28;20022;-70
2021/12/03 20:16:51;;;;;;;8.02;4.43;;;3.30;99.90;;;;;;4947741;28;20022;-70
2021/12/03 20:21:50;;;;;;;7.82;4.57;;;3.20;99.90;;;;;;4980543;28;20046;-70
2021/12/03 20:27:11;;;;;;;6.43;4.70;;;3.20;99.90;;;;;;4958260;28;20264;-70
2021/12/03 20:30:09;;;;;;;8.88;4.90;;;3.30;99.90;;;;;;4980726;28;20202;-70
2021/12/03 20:32:37;;;;;;;6.28;4.30;;;3.20;99.90;;;;;;4981174;28;20025;-70
2021/12/03 20:35:22;;;;;;;7.03;4.43;;;3.30;99.90;;;;;;4980554;28;20018;-69
2021/12/03 20:37:49;;;;;;;6.95;4.35;;;3.30;99.90;;;;;;4980534;28;20026;-69
2021/12/03 20:40:22;;;;;;;6.20;4.13;;;3.30;99.90;;;;;;4963582;28;20031;-69
2021/12/03 21:09:33;;;;;;;5.72;3.72;;;3.20;99.90;;;;;;4980398;28;20050;-70
2021/12/03 21:12:03;;;;;;;8.48;3.88;;;3.10;99.90;;;;;;4962468;28;20097;-71
2021/12/03 21:14:31;;;;;;;5.55;3.28;;;3.10;99.90;;;;;;4963110;28;20146;-70
2021/12/03 21:17:13;;;;;;;;;;;3.10;99.90;;;;;;4963355;28;20051;-70